sensor_id;sensor_type;location;lat;lon;timestamp;pressure;altitude;pressure_sealevel;temperature;humidity
41624;BME280;27319;50.306;18.926;2023-06-14T00:01:52;98119.13;;;13.25;71.53
41624;BME280;27319;50.306;18.926;2023-06-14T00:04:52;98126.47;;;13.16;71.77
41624;BME280;27319;50.306;18.926;2023-06-14T00:08:14;98120.91;;;13.18;71.51
41624;BME280;27319;50.306;18.926;2023-06-14T00:11:54;98116.19;;;13.20;71.94
41624;BME280;27319;50.306;18.926;2023-06-14T00:14:55;98123.69;;;13.10;71.67
41624;BME280;27319;50.306;18.926;2023-06-14T00:17:57;98116.81;;;13.07;72.20
41624;BME280;27319;50.306;18.926;2023-06-14T00:21:01;98117.91;;;13.13;71.49
41624;BME280;27319;50.306;18.926;2023-06-14T00:24:24;98108.00;;;12.99;71.66
41624;BME280;27319;50.306;18.926;2023-06-14T00:28:05;98114.19;;;13.14;70.99
41624;BME280;27319;50.306;18.926;2023-06-14T00:31:06;98110.78;;;13.20;70.83
41624;BME280;27319;50.306;18.926;2023-06-14T00:34:07;98116.41;;;13.25;70.80
41624;BME280;27319;50.306;18.926;2023-06-14T00:37:09;98115.97;;;13.21;70.59
41624;BME280;27319;50.306;18.926;2023-06-14T00:40:11;98103.41;;;13.14;70.64
41624;BME280;27319;50.306;18.926;2023-06-14T00:43:11;98099.91;;;13.13;70.91
41624;BME280;27319;50.306;18.926;2023-06-14T00:46:32;98100.25;;;13.25;70.56
41624;BME280;27319;50.306;18.926;2023-06-14T00:50:13;98094.97;;;13.17;70.54
41624;BME280;27319;50.306;18.926;2023-06-14T00:53:15;98088.28;;;13.13;70.61
41624;BME280;27319;50.306;18.926;2023-06-14T00:56:18;98081.22;;;13.12;70.69
41624;BME280;27319;50.306;18.926;2023-06-14T00:59:21;98090.97;;;13.13;70.43
41624;BME280;27319;50.306;18.926;2023-06-14T01:02:22;98097.78;;;13.09;70.38
41624;BME280;27319;50.306;18.926;2023-06-14T01:05:23;98101.38;;;12.87;71.57
41624;BME280;27319;50.306;18.926;2023-06-14T01:08:28;98093.19;;;12.80;71.58
41624;BME280;27319;50.306;18.926;2023-06-14T01:11:41;98090.16;;;12.83;71.67
41624;BME280;27319;50.306;18.926;2023-06-14T01:15:07;98087.44;;;12.69;72.65
41624;BME280;27319;50.306;18.926;2023-06-14T01:18:49;98090.41;;;12.59;72.44
41624;BME280;27319;50.306;18.926;2023-06-14T01:21:52;98096.03;;;12.50;73.98
41624;BME280;27319;50.306;18.926;2023-06-14T01:24:53;98089.91;;;12.41;74.53
41624;BME280;27319;50.306;18.926;2023-06-14T01:28:00;98082.38;;;12.37;73.53
41624;BME280;27319;50.306;18.926;2023-06-14T01:31:22;98088.63;;;12.37;73.21
41624;BME280;27319;50.306;18.926;2023-06-14T01:35:23;98077.59;;;12.47;72.48
41624;BME280;27319;50.306;18.926;2023-06-14T01:39:01;98084.47;;;12.49;72.76
41624;BME280;27319;50.306;18.926;2023-06-14T01:42:02;98088.53;;;12.45;72.67
41624;BME280;27319;50.306;18.926;2023-06-14T01:45:05;98093.16;;;12.51;73.89
41624;BME280;27319;50.306;18.926;2023-06-14T01:48:07;98088.16;;;12.11;75.21
41624;BME280;27319;50.306;18.926;2023-06-14T01:51:08;98083.88;;;11.80;76.72
41624;BME280;27319;50.306;18.926;2023-06-14T01:54:09;98085.56;;;11.81;75.40
41624;BME280;27319;50.306;18.926;2023-06-14T01:57:10;98083.03;;;12.02;74.55
41624;BME280;27319;50.306;18.926;2023-06-14T02:00:31;98085.91;;;12.23;73.60
41624;BME280;27319;50.306;18.926;2023-06-14T02:04:12;98079.22;;;12.33;72.77
41624;BME280;27319;50.306;18.926;2023-06-14T02:07:13;98081.56;;;12.36;72.72
41624;BME280;27319;50.306;18.926;2023-06-14T02:10:14;98075.63;;;12.41;72.47
41624;BME280;27319;50.306;18.926;2023-06-14T02:13:15;98073.88;;;12.48;72.87
41624;BME280;27319;50.306;18.926;2023-06-14T02:16:17;98079.53;;;12.38;72.50
41624;BME280;27319;50.306;18.926;2023-06-14T02:19:19;98088.50;;;12.31;72.84
41624;BME280;27319;50.306;18.926;2023-06-14T02:22:28;98081.47;;;12.07;73.34
41624;BME280;27319;50.306;18.926;2023-06-14T02:25:29;98077.97;;;12.07;73.31
41624;BME280;27319;50.306;18.926;2023-06-14T02:28:30;98074.25;;;12.08;72.78
41624;BME280;27319;50.306;18.926;2023-06-14T02:31:32;98075.88;;;12.17;72.80
41624;BME280;27319;50.306;18.926;2023-06-14T02:34:34;98078.91;;;12.14;72.92
41624;BME280;27319;50.306;18.926;2023-06-14T02:37:35;98079.53;;;12.16;74.24
41624;BME280;27319;50.306;18.926;2023-06-14T02:40:36;98076.81;;;12.24;73.93
41624;BME280;27319;50.306;18.926;2023-06-14T02:43:37;98077.88;;;12.15;73.02
41624;BME280;27319;50.306;18.926;2023-06-14T02:46:38;98080.28;;;12.10;74.75
41624;BME280;27319;50.306;18.926;2023-06-14T02:49:39;98078.56;;;11.94;74.55
41624;BME280;27319;50.306;18.926;2023-06-14T02:52:40;98086.81;;;11.93;75.87
41624;BME280;27319;50.306;18.926;2023-06-14T02:55:42;98076.28;;;11.83;77.68
41624;BME280;27319;50.306;18.926;2023-06-14T02:59:03;98072.78;;;11.83;75.51
41624;BME280;27319;50.306;18.926;2023-06-14T03:02:44;98069.59;;;12.02;75.86
41624;BME280;27319;50.306;18.926;2023-06-14T03:05:47;98079.81;;;12.06;75.78
41624;BME280;27319;50.306;18.926;2023-06-14T03:08:50;98068.13;;;12.14;76.61
41624;BME280;27319;50.306;18.926;2023-06-14T03:11:51;98073.81;;;12.19;75.98
41624;BME280;27319;50.306;18.926;2023-06-14T03:14:52;98077.16;;;12.21;78.21
41624;BME280;27319;50.306;18.926;2023-06-14T03:18:13;98078.47;;;12.25;78.79
41624;BME280;27319;50.306;18.926;2023-06-14T03:22:14;98074.66;;;12.19;79.16
41624;BME280;27319;50.306;18.926;2023-06-14T03:26:15;98074.84;;;12.18;76.87
41624;BME280;27319;50.306;18.926;2023-06-14T03:30:16;98073.47;;;12.22;78.38
41624;BME280;27319;50.306;18.926;2023-06-14T03:34:16;98068.28;;;12.35;79.55
41624;BME280;27319;50.306;18.926;2023-06-14T03:38:17;98073.00;;;12.47;82.20
41624;BME280;27319;50.306;18.926;2023-06-14T03:41:58;98081.75;;;12.49;78.66
41624;BME280;27319;50.306;18.926;2023-06-14T03:44:59;98079.53;;;12.67;79.16
41624;BME280;27319;50.306;18.926;2023-06-14T03:48:00;98080.00;;;12.71;77.72
41624;BME280;27319;50.306;18.926;2023-06-14T03:51:20;98082.25;;;12.82;79.08
41624;BME280;27319;50.306;18.926;2023-06-14T03:55:02;98085.56;;;12.84;80.71
41624;BME280;27319;50.306;18.926;2023-06-14T03:58:03;98084.28;;;12.80;81.48
41624;BME280;27319;50.306;18.926;2023-06-14T04:01:24;98077.03;;;12.95;82.08
41624;BME280;27319;50.306;18.926;2023-06-14T04:05:25;98074.81;;;13.13;80.87
41624;BME280;27319;50.306;18.926;2023-06-14T04:09:06;98077.63;;;13.05;82.93
41624;BME280;27319;50.306;18.926;2023-06-14T04:12:07;98081.78;;;13.22;80.47
41624;BME280;27319;50.306;18.926;2023-06-14T04:15:12;98086.03;;;13.16;82.46
41624;BME280;27319;50.306;18.926;2023-06-14T04:18:14;98085.88;;;13.18;82.67
41624;BME280;27319;50.306;18.926;2023-06-14T04:21:15;98083.31;;;13.31;85.58
41624;BME280;27319;50.306;18.926;2023-06-14T04:24:35;98089.84;;;13.36;83.84
41624;BME280;27319;50.306;18.926;2023-06-14T04:28:39;98093.00;;;13.40;80.79
41624;BME280;27319;50.306;18.926;2023-06-14T04:32:24;98093.72;;;13.48;81.47
41624;BME280;27319;50.306;18.926;2023-06-14T04:35:26;98090.25;;;13.54;83.95
41624;BME280;27319;50.306;18.926;2023-06-14T04:38:49;98082.44;;;13.59;82.42
41624;BME280;27319;50.306;18.926;2023-06-14T04:42:30;98088.81;;;13.73;81.83
41624;BME280;27319;50.306;18.926;2023-06-14T04:45:31;98083.41;;;13.73;81.15
41624;BME280;27319;50.306;18.926;2023-06-14T04:48:32;98090.53;;;13.59;86.08
41624;BME280;27319;50.306;18.926;2023-06-14T04:51:33;98088.13;;;13.71;82.26
41624;BME280;27319;50.306;18.926;2023-06-14T04:54:36;98096.22;;;13.71;82.11
41624;BME280;27319;50.306;18.926;2023-06-14T04:57:42;98090.38;;;13.46;86.32
41624;BME280;27319;50.306;18.926;2023-06-14T05:01:03;98083.97;;;13.47;88.50
41624;BME280;27319;50.306;18.926;2023-06-14T05:05:04;98091.88;;;13.70;84.97
41624;BME280;27319;50.306;18.926;2023-06-14T05:09:05;98097.09;;;13.71;84.77
41624;BME280;27319;50.306;18.926;2023-06-14T05:13:05;98099.19;;;13.76;84.48
41624;BME280;27319;50.306;18.926;2023-06-14T05:16:46;98103.63;;;13.83;83.64
41624;BME280;27319;50.306;18.926;2023-06-14T05:19:49;98104.75;;;13.89;80.72
41624;BME280;27319;50.306;18.926;2023-06-14T05:22:53;98105.13;;;13.86;79.63
41624;BME280;27319;50.306;18.926;2023-06-14T05:25:54;98110.97;;;13.89;82.92
41624;BME280;27319;50.306;18.926;2023-06-14T05:28:56;98120.16;;;13.74;84.82
41624;BME280;27319;50.306;18.926;2023-06-14T05:31:57;98116.00;;;13.92;83.92
41624;BME280;27319;50.306;18.926;2023-06-14T05:34:58;98121.50;;;14.05;81.49
41624;BME280;27319;50.306;18.926;2023-06-14T05:37:59;98123.69;;;14.16;80.89
41624;BME280;27319;50.306;18.926;2023-06-14T05:41:00;98129.66;;;14.26;81.93
41624;BME280;27319;50.306;18.926;2023-06-14T05:44:01;98134.97;;;14.41;82.43
41624;BME280;27319;50.306;18.926;2023-06-14T05:47:22;98124.53;;;14.59;81.82
41624;BME280;27319;50.306;18.926;2023-06-14T05:51:23;98133.50;;;14.93;81.47
41624;BME280;27319;50.306;18.926;2023-06-14T05:55:24;98134.59;;;15.33;80.38
41624;BME280;27319;50.306;18.926;2023-06-14T05:59:05;98126.41;;;15.67;80.77
41624;BME280;27319;50.306;18.926;2023-06-14T06:02:06;98142.03;;;16.44;77.27
41624;BME280;27319;50.306;18.926;2023-06-14T06:05:27;98136.84;;;15.70;79.45
41624;BME280;27319;50.306;18.926;2023-06-14T06:08:31;98131.19;;;15.65;82.08
41624;BME280;27319;50.306;18.926;2023-06-14T06:11:53;98129.03;;;16.07;80.10
41624;BME280;27319;50.306;18.926;2023-06-14T06:15:34;98133.63;;;16.26;78.50
41624;BME280;27319;50.306;18.926;2023-06-14T06:18:54;98135.38;;;16.66;77.65
41624;BME280;27319;50.306;18.926;2023-06-14T06:22:55;98145.78;;;16.89;75.70
41624;BME280;27319;50.306;18.926;2023-06-14T06:26:56;98150.38;;;16.82;75.58
41624;BME280;27319;50.306;18.926;2023-06-14T06:30:57;98149.97;;;16.85;75.11
41624;BME280;27319;50.306;18.926;2023-06-14T06:34:58;98158.50;;;16.82;75.27
41624;BME280;27319;50.306;18.926;2023-06-14T06:38:39;98156.41;;;16.77;75.26
41624;BME280;27319;50.306;18.926;2023-06-14T06:41:59;98162.06;;;16.50;75.87
41624;BME280;27319;50.306;18.926;2023-06-14T06:46:00;98153.66;;;16.32;77.46
41624;BME280;27319;50.306;18.926;2023-06-14T06:50:01;98159.56;;;16.42;76.86
41624;BME280;27319;50.306;18.926;2023-06-14T06:54:01;98153.50;;;16.53;76.96
41624;BME280;27319;50.306;18.926;2023-06-14T06:58:02;98169.78;;;16.79;83.94
